Time;durP1;ratioP1;P1;durP2;ratioP2;P2;SDS_P1;SDS_P2;PMS_P1;PMS_P2;Temp;Humidity;BMP_temperature;BMP_pressure;BME280_temperature;BME280_humidity;BME280_pressure;Samples;Min_cycle;Max_cycle;Signal;HPM_P1;HPM_P2
2023/04/28 00:07:36;;;;;;;5.28;1.98;;;10.40;1.00;;;;;;20713379;28;20037;-41
2023/04/28 00:17:37;;;;;;;3.75;1.58;;;10.30;1.00;;;;;;20712568;28;20042;-42
2023/04/28 00:27:38;;;;;;;9.98;1.77;;;10.30;1.00;;;;;;20718191;28;20033;-42
2023/04/28 00:37:39;;;;;;;5.40;2.00;;;10.40;1.00;;;;;;20714220;28;20046;-42
2023/04/28 00:47:41;;;;;;;5.13;2.00;;;10.30;1.00;;;;;;20710411;28;20041;-42
2023/04/28 00:57:42;;;;;;;4.05;1.58;;;10.10;1.00;;;;;;20706717;28;20053;-42
2023/04/28 01:07:43;;;;;;;2.97;1.70;;;10.10;1.00;;;;;;20710870;28;20382;-41
2023/04/28 01:17:47;;;;;;;4.07;1.63;;;10.00;1.00;;;;;;20711590;28;20033;-42
2023/04/28 01:27:48;;;;;;;3.97;2.00;;;10.10;1.00;;;;;;20708696;28;20389;-42
2023/04/28 01:37:49;;;;;;;4.00;1.75;;;9.90;1.00;;;;;;20687727;28;20041;-44
2023/04/28 01:47:50;;;;;;;4.50;1.95;;;10.00;1.00;;;;;;20706232;28;20037;-42
2023/04/28 01:57:51;;;;;;;5.47;1.98;;;10.10;1.00;;;;;;20706388;28;20494;-42
2023/04/28 02:07:52;;;;;;;5.18;1.70;;;10.00;1.00;;;;;;20702247;28;20042;-42
2023/04/28 02:17:53;;;;;;;6.78;2.28;;;10.00;1.00;;;;;;20703963;28;20041;-42
2023/04/28 02:27:55;;;;;;;7.38;2.53;;;9.90;1.00;;;;;;20702209;28;20034;-42
2023/04/28 02:37:56;;;;;;;3.70;1.60;;;10.10;1.00;;;;;;20709525;28;20041;-42
2023/04/28 02:47:57;;;;;;;3.60;2.17;;;9.80;1.00;;;;;;20698755;28;20056;-42
2023/04/28 02:57:58;;;;;;;2.88;1.40;;;9.80;1.00;;;;;;20703468;28;20050;-42
2023/04/28 03:07:59;;;;;;;5.03;2.15;;;9.70;1.00;;;;;;20702938;28;20036;-42
2023/04/28 03:18:00;;;;;;;3.88;1.67;;;9.70;1.00;;;;;;20728224;28;20045;-42
2023/04/28 03:28:01;;;;;;;2.83;1.48;;;9.70;1.00;;;;;;20726805;28;20509;-42
2023/04/28 03:38:02;;;;;;;3.78;1.75;;;9.60;1.00;;;;;;20732346;28;20046;-42
2023/04/28 03:48:03;;;;;;;4.22;1.50;;;9.50;1.00;;;;;;20729527;28;20037;-42
2023/04/28 03:58:04;;;;;;;3.55;1.80;;;9.30;1.00;;;;;;20712438;28;20059;-42
2023/04/28 04:08:05;;;;;;;4.30;1.70;;;9.30;1.00;;;;;;20720689;28;20045;-42
2023/04/28 04:18:07;;;;;;;3.38;1.40;;;9.40;1.00;;;;;;20730763;28;20111;-42
2023/04/28 04:28:08;;;;;;;4.28;1.70;;;9.40;1.00;;;;;;20713252;28;20030;-42
2023/04/28 04:38:09;;;;;;;3.88;1.75;;;9.40;1.00;;;;;;20711932;28;20049;-42
2023/04/28 04:48:10;;;;;;;5.05;1.98;;;9.40;1.00;;;;;;20715304;28;20616;-42
2023/04/28 04:58:11;;;;;;;3.13;1.45;;;9.30;1.00;;;;;;20718704;28;21520;-42
2023/04/28 05:08:12;;;;;;;4.75;2.95;;;9.40;1.00;;;;;;20706920;28;20420;-42
2023/04/28 05:18:14;;;;;;;4.10;1.60;;;9.60;1.00;;;;;;20713905;28;20850;-41
2023/04/28 05:28:15;;;;;;;4.38;1.98;;;9.50;1.00;;;;;;20691293;28;20041;-42
2023/04/28 05:38:16;;;;;;;12.05;2.95;;;9.40;1.00;;;;;;20710906;28;20045;-41
2023/04/28 05:48:18;;;;;;;6.60;3.10;;;9.20;1.00;;;;;;20707238;28;20508;-41
2023/04/28 05:58:19;;;;;;;6.22;2.65;;;9.20;1.00;;;;;;20708462;28;20060;-42
2023/04/28 06:08:20;;;;;;;4.65;2.63;;;9.30;1.00;;;;;;20704351;28;20037;-42
2023/04/28 06:18:23;;;;;;;8.10;3.33;;;9.30;1.00;;;;;;20709008;28;20474;-41
2023/04/28 06:28:24;;;;;;;11.35;4.47;;;9.30;1.00;;;;;;20711568;28;20371;-41
2023/04/28 06:38:25;;;;;;;8.68;4.10;;;9.60;1.00;;;;;;20702953;28;20037;-42
2023/04/28 06:48:26;;;;;;;12.95;4.30;;;9.60;1.00;;;;;;20705739;28;20030;-42
2023/04/28 06:58:27;;;;;;;9.98;5.25;;;9.80;1.00;;;;;;20715402;28;20060;-42
2023/04/28 07:08:29;;;;;;;9.13;4.78;;;9.80;1.00;;;;;;20710767;28;20394;-42
2023/04/28 07:18:30;;;;;;;11.93;5.63;;;10.00;1.00;;;;;;20712414;28;20580;-42
2023/04/28 07:28:31;;;;;;;11.45;4.97;;;10.10;1.00;;;;;;20713497;28;20041;-42
2023/04/28 07:38:35;;;;;;;12.65;5.45;;;10.20;1.00;;;;;;20712903;28;20259;-42
2023/04/28 07:48:36;;;;;;;8.93;4.35;;;10.30;1.00;;;;;;20710464;28;20048;-42
2023/04/28 07:58:37;;;;;;;11.93;6.13;;;10.50;1.00;;;;;;20715476;28;20060;-42
2023/04/28 08:08:39;;;;;;;15.38;6.45;;;10.50;1.00;;;;;;20732344;28;20519;-42
2023/04/28 08:18:40;;;;;;;19.60;7.25;;;10.60;1.00;;;;;;20730994;28;20403;-42
2023/04/28 08:28:41;;;;;;;12.30;6.78;;;10.50;49.70;;;;;;20740788;28;21509;-42
2023/04/28 08:38:43;;;;;;;17.98;7.85;;;10.70;95.10;;;;;;20728158;28;20045;-42
2023/04/28 08:48:45;;;;;;;13.98;7.63;;;10.70;99.90;;;;;;20721845;28;20140;-42
2023/04/28 08:58:47;;;;;;;22.60;9.15;;;10.70;99.90;;;;;;20707695;28;20041;-42
2023/04/28 09:08:48;;;;;;;20.33;9.27;;;10.70;99.90;;;;;;20720860;28;20068;-42
2023/04/28 09:18:59;;;;;;;17.10;8.63;;;10.90;99.90;;;;;;20720485;28;20045;-42
2023/04/28 09:29:12;;;;;;;20.27;9.88;;;11.10;99.90;;;;;;20727651;28;20050;-42
2023/04/28 09:39:13;;;;;;;19.13;9.15;;;11.20;99.90;;;;;;20715268;28;20042;-42
2023/04/28 09:49:14;;;;;;;17.73;9.75;;;11.40;99.90;;;;;;20715752;28;20036;-42
2023/04/28 09:59:15;;;;;;;17.42;9.15;;;11.60;99.90;;;;;;20714800;28;20293;-42
2023/04/28 10:09:17;;;;;;;17.90;8.25;;;11.80;99.90;;;;;;20720353;28;20429;-41
2023/04/28 10:19:19;;;;;;;15.70;6.72;;;11.90;99.90;;;;;;20719025;28;20042;-42
2023/04/28 10:29:24;;;;;;;13.55;7.57;;;12.00;99.90;;;;;;20724109;28;20397;-42
2023/04/28 10:39:25;;;;;;;13.73;6.90;;;12.20;99.90;;;;;;20711766;28;20057;-41
2023/04/28 10:49:55;;;;;;;14.05;8.85;;;12.40;99.90;;;;;;20712156;28;20030;-42
2023/04/28 11:00:29;;;;;;;11.23;5.70;;;12.50;99.90;;;;;;20706513;28;20071;-41
2023/04/28 11:11:08;;;;;;;12.93;5.13;;;12.80;99.90;;;;;;20722860;28;20414;-41
2023/04/28 11:21:10;;;;;;;7.30;3.22;;;13.00;99.90;;;;;;20714240;28;20223;-41
2023/04/28 11:31:12;;;;;;;6.40;2.60;;;13.10;99.90;;;;;;20722268;28;20050;-41
2023/04/28 11:41:13;;;;;;;7.00;4.00;;;13.10;99.90;;;;;;20726399;28;20033;-41
2023/04/28 11:51:28;;;;;;;9.68;3.88;;;13.10;99.90;;;;;;20727333;28;20520;-42
2023/04/28 12:01:30;;;;;;;6.25;3.17;;;13.00;99.90;;;;;;20697242;28;20053;-41
2023/04/28 12:11:31;;;;;;;5.63;3.00;;;13.10;99.90;;;;;;20724709;28;20033;-41
2023/04/28 12:21:32;;;;;;;5.43;2.80;;;13.30;99.90;;;;;;20720236;28;20044;-41
2023/04/28 12:31:47;;;;;;;4.43;1.60;;;13.30;99.90;;;;;;20732778;28;20045;-41
2023/04/28 12:41:49;;;;;;;2.95;1.45;;;13.30;99.90;;;;;;20710866;28;20053;-42
2023/04/28 12:51:50;;;;;;;2.50;1.15;;;13.40;99.90;;;;;;20720682;28;20038;-42
2023/04/28 13:01:51;;;;;;;2.05;0.80;;;13.60;99.90;;;;;;20700344;28;20101;-42
2023/04/28 13:11:55;;;;;;;2.58;1.45;;;13.70;99.90;;;;;;20700444;28;20045;-41
2023/04/28 13:21:56;;;;;;;2.35;1.17;;;13.50;99.90;;;;;;20714812;28;20114;-41
2023/04/28 13:31:57;;;;;;;3.30;2.00;;;13.50;99.90;;;;;;20710929;28;20034;-41
2023/04/28 13:41:58;;;;;;;5.13;3.05;;;13.50;99.90;;;;;;20698840;28;20053;-41
2023/04/28 13:52:02;;;;;;;6.38;2.70;;;13.30;99.90;;;;;;20706187;28;20033;-42
2023/04/28 14:02:03;;;;;;;11.27;4.45;;;13.40;99.90;;;;;;20705901;28;20042;-42
2023/04/28 14:12:05;;;;;;;13.82;4.00;;;13.40;99.90;;;;;;20698889;28;20073;-41
2023/04/28 14:22:06;;;;;;;14.80;6.13;;;13.40;99.90;;;;;;20705438;28;20041;-41
2023/04/28 14:32:07;;;;;;;12.30;6.10;;;13.50;99.90;;;;;;20720343;28;20532;-41
2023/04/28 14:42:08;;;;;;;10.93;4.38;;;13.50;99.90;;;;;;20702121;28;20188;-41
2023/04/28 14:52:09;;;;;;;10.35;4.75;;;13.50;99.90;;;;;;20724184;28;20049;-41
2023/04/28 15:02:10;;;;;;;14.35;6.15;;;13.40;99.90;;;;;;20712366;28;20431;-41
2023/04/28 15:12:12;;;;;;;8.85;3.80;;;13.40;99.90;;;;;;20714600;28;20042;-41
2023/04/28 15:22:13;;;;;;;12.15;3.60;;;13.40;99.90;;;;;;20720656;28;20041;-41
2023/04/28 15:32:14;;;;;;;12.52;4.20;;;13.30;99.90;;;;;;20721705;28;20046;-41
2023/04/28 15:42:16;;;;;;;11.10;4.72;;;13.30;99.90;;;;;;20729201;28;20044;-41
2023/04/28 15:52:18;;;;;;;12.32;4.40;;;13.30;99.90;;;;;;20717170;28;20046;-41
2023/04/28 16:02:20;;;;;;;8.18;4.88;;;13.40;99.90;;;;;;20714535;28;20050;-41
2023/04/28 16:12:21;;;;;;;9.60;4.18;;;13.40;99.90;;;;;;20721882;28;20037;-42
2023/04/28 16:22:23;;;;;;;8.85;4.00;;;13.40;99.90;;;;;;20728511;28;20050;-42
2023/04/28 16:32:25;;;;;;;5.90;2.75;;;13.40;99.90;;;;;;20704538;28;20034;-42
2023/04/28 16:42:26;;;;;;;3.85;2.15;;;13.30;99.90;;;;;;20726559;28;20042;-41
2023/04/28 16:52:27;;;;;;;3.75;1.70;;;13.10;99.90;;;;;;20701495;28;20061;-41
2023/04/28 17:02:28;;;;;;;3.85;1.17;;;12.90;99.90;;;;;;20725140;28;20029;-41
2023/04/28 17:12:29;;;;;;;2.20;0.88;;;12.80;99.90;;;;;;20734596;28;20503;-41
2023/04/28 17:22:30;;;;;;;1.92;0.95;;;12.60;99.90;;;;;;20721866;28;20029;-42
2023/04/28 17:32:32;;;;;;;5.13;2.50;;;12.40;99.90;;;;;;20723261;28;20033;-42
2023/04/28 17:42:33;;;;;;;5.80;2.95;;;12.30;99.90;;;;;;20717458;28;20543;-42
2023/04/28 17:52:35;;;;;;;11.80;4.25;;;12.20;99.90;;;;;;20716613;28;20493;-42
2023/04/28 18:02:36;;;;;;;11.20;6.47;;;12.00;99.90;;;;;;20719378;28;20053;-42
2023/04/28 18:12:37;;;;;;;16.02;5.88;;;12.00;99.90;;;;;;20718627;28;20040;-42
2023/04/28 18:22:40;;;;;;;14.02;7.63;;;11.80;99.90;;;;;;20714921;28;20034;-42
2023/04/28 18:32:41;;;;;;;21.40;8.05;;;11.80;99.90;;;;;;20705432;28;20064;-42
2023/04/28 18:42:42;;;;;;;21.50;8.43;;;11.70;99.90;;;;;;20708672;28;20112;-42
2023/04/28 18:52:43;;;;;;;21.70;10.43;;;11.60;99.90;;;;;;20709171;28;20034;-43
2023/04/28 19:02:44;;;;;;;22.63;10.60;;;11.50;99.90;;;;;;20707975;28;20034;-43
2023/04/28 19:12:45;;;;;;;18.48;9.07;;;11.50;99.90;;;;;;20703164;28;20042;-43
2023/04/28 19:22:47;;;;;;;21.25;9.35;;;11.50;99.90;;;;;;20715276;28;20172;-42
2023/04/28 19:32:48;;;;;;;28.13;11.73;;;11.40;99.90;;;;;;20720749;28;20045;-42
2023/04/28 19:42:50;;;;;;;27.58;10.65;;;11.30;99.90;;;;;;20719571;28;20417;-43
2023/04/28 19:52:51;;;;;;;29.58;12.07;;;11.20;99.90;;;;;;20712041;28;20049;-43
2023/04/28 20:02:52;;;;;;;28.92;12.82;;;11.10;99.90;;;;;;20727463;28;20037;-43
2023/04/28 20:12:53;;;;;;;30.35;12.43;;;11.00;99.90;;;;;;20730559;28;20041;-43
2023/04/28 20:22:54;;;;;;;27.95;12.85;;;11.00;99.90;;;;;;20725372;28;20034;-43
2023/04/28 20:32:55;;;;;;;38.97;15.68;;;10.80;99.90;;;;;;20724017;28;20426;-43
2023/04/28 20:42:57;;;;;;;43.38;15.23;;;10.70;99.90;;;;;;20724253;28;20057;-42
2023/04/28 20:52:58;;;;;;;32.63;12.95;;;10.60;99.90;;;;;;20714704;28;20053;-42
2023/04/28 21:03:03;;;;;;;24.65;10.65;;;10.50;99.90;;;;;;20711257;28;20041;-43
2023/04/28 21:13:05;;;;;;;22.95;11.07;;;10.50;99.90;;;;;;20720490;28;20038;-42
2023/04/28 21:23:06;;;;;;;26.73;10.82;;;10.50;99.90;;;;;;20723308;28;20362;-42
2023/04/28 21:33:07;;;;;;;21.65;8.88;;;10.40;99.90;;;;;;20720407;28;20040;-42
2023/04/28 21:43:09;;;;;;;19.23;9.63;;;10.30;97.50;;;;;;20709333;28;20044;-42
2023/04/28 21:53:10;;;;;;;18.92;8.68;;;10.10;95.60;;;;;;20702601;28;20343;-42
2023/04/28 22:03:12;;;;;;;12.10;6.60;;;10.10;94.50;;;;;;20709477;28;20068;-43
2023/04/28 22:13:14;;;;;;;14.23;6.75;;;10.00;77.80;;;;;;20704673;28;20396;-42
2023/04/28 22:23:15;;;;;;;12.82;5.75;;;9.90;75.00;;;;;;20703368;28;20037;-43
2023/04/28 22:33:16;;;;;;;10.73;5.70;;;9.90;83.40;;;;;;20703249;28;20502;-43
2023/04/28 22:43:18;;;;;;;14.15;7.13;;;9.80;79.50;;;;;;20697037;28;20057;-42
2023/04/28 22:53:20;;;;;;;14.88;7.20;;;9.70;81.70;;;;;;20698003;28;20061;-43
2023/04/28 23:03:21;;;;;;;13.52;6.47;;;9.80;88.30;;;;;;20697018;28;20358;-43
2023/04/28 23:13:22;;;;;;;14.82;7.03;;;9.70;80.70;;;;;;20671492;28;20052;-42
2023/04/28 23:23:23;;;;;;;16.02;7.20;;;9.70;90.80;;;;;;20692437;28;20049;-43
2023/04/28 23:33:24;;;;;;;19.65;9.38;;;9.80;97.30;;;;;;20707488;28;20355;-42
2023/04/28 23:43:26;;;;;;;20.98;8.77;;;9.80;92.20;;;;;;20705043;28;21602;-42
2023/04/28 23:53:27;;;;;;;20.80;9.95;;;9.70;99.00;;;;;;20706336;28;20177;-42
